Portada
METAR-TAF:

METAR-TAF

Aeropuertos :

Oslo, Noruega

Aeropuerto de Oslo-Gardermoen

latitud: 60-12N, longitud: 011-05E, altitud: 208 m

Observación

El informe se hizo hace 17 minutos, a las 20:20 UTC
Viento 6 kt del norte-noreste
Temperatura 17°C
Humedad 52%
Presión 1015 hPa
Visibilidad 10 km o más
sin nubes por debajo de 1500 m y sin presencia de cumulonimbus.

METAR: ENGM 242020Z 02006KT CAVOK 17/07 Q1015 NOSIG

Hora: 22:37 (20:37 UTC)

Pronóstico

Pronóstico válido del 24 a las 18 UTC al 25 a las 18 UTC
Viento 5 kt del este-noreste
Visibilidad 10 km o más
Nubes dispersas a una altura de 4000 ft
Cielo nuboso a una altura de 8000 ft
Probabilidad 40% :
Temporalmente
del 25 a las 13 UTC al 25 a las 18 UTC
Escasas nubes a una altura de 2500 ft, Cumulonimbus.
Nubes dispersas a una altura de 4000 ft
chaparrones de lluvia

TAF: ENGM 2418/2518 06005KT 9999 SCT040 BKN080 PROB40 TEMPO 2513/2518 SHRA FEW025CB SCT040

Observaciones y pronósticos meteorológicos de más de 4000 aeropuertos (mensajes METAR y TAF).

Los puntos amarillos y rojos representan las estaciones disponibles.

Ponga el ratón en el punto deseado para ver el nombre de la estación.

Haga clic para ver las observaciones y los pronósticos meteorológicos.

Para cambiar el mapa : haga clic en los botones verdes con una cruz de color negro para hacer un zoom, en el botón verde con un guión para alejar o en las flechas verdes para mapas adyacentes.


METAR-TAF: